Time;durP1;ratioP1;P1;durP2;ratioP2;P2;SDS_P1;SDS_P2;PMS_P1;PMS_P2;Temp;Humidity;BMP_temperature;BMP_pressure;BME280_temperature;BME280_humidity;BME280_pressure;Samples;Min_cycle;Max_cycle;Signal;HPM_P1;HPM_P2
2021/11/10 00:01:47;;;;;;;23.83;19.55;;;2.50;99.90;;;;;;5058330;28;20395;-82
2021/11/10 00:04:13;;;;;;;24.25;19.65;;;2.50;99.90;;;;;;5047328;28;20398;-81
2021/11/10 00:06:39;;;;;;;24.43;21.27;;;2.50;99.90;;;;;;5046782;28;20389;-82
2021/11/10 00:09:05;;;;;;;23.03;20.53;;;2.40;99.90;;;;;;5054404;28;20404;-80
2021/11/10 00:11:31;;;;;;;25.83;21.10;;;2.40;99.90;;;;;;5051555;28;20432;-81
2021/11/10 00:13:57;;;;;;;22.20;19.45;;;2.40;99.90;;;;;;5044574;28;20384;-81
2021/11/10 00:16:23;;;;;;;26.47;21.57;;;2.40;99.90;;;;;;5051319;28;21238;-82
2021/11/10 00:18:51;;;;;;;22.33;18.95;;;2.40;99.90;;;;;;5052597;28;20441;-81
2021/11/10 00:21:20;;;;;;;21.55;19.30;;;2.30;99.90;;;;;;5046746;28;20378;-81
2021/11/10 00:23:46;;;;;;;23.92;20.70;;;2.30;99.90;;;;;;5046690;28;20449;-83
2021/11/10 00:26:12;;;;;;;23.23;20.70;;;2.30;99.90;;;;;;5045966;28;20894;-82
2021/11/10 00:28:37;;;;;;;27.70;24.53;;;2.30;99.90;;;;;;5060661;28;20748;-81
2021/11/10 00:31:03;;;;;;;26.90;22.03;;;2.30;99.90;;;;;;5062595;28;20875;-83
2021/11/10 00:33:29;;;;;;;25.90;22.70;;;2.30;99.90;;;;;;5063102;28;20529;-82
2021/11/10 00:35:54;;;;;;;24.25;20.85;;;2.30;99.90;;;;;;5067308;28;20435;-82
2021/11/10 00:38:20;;;;;;;24.15;21.38;;;2.30;99.90;;;;;;5073526;28;20385;-83
2021/11/10 00:40:45;;;;;;;23.00;20.70;;;2.30;99.90;;;;;;5065403;28;20891;-83
2021/11/10 00:43:12;;;;;;;24.03;21.47;;;2.20;99.90;;;;;;5065975;28;20383;-82
2021/11/10 00:45:37;;;;;;;25.90;23.17;;;2.20;99.90;;;;;;5055149;28;20810;-81
2021/11/10 00:48:04;;;;;;;25.17;21.90;;;2.20;99.90;;;;;;5042491;28;20464;-81
2021/11/10 00:50:30;;;;;;;27.00;23.77;;;2.20;99.90;;;;;;5067356;28;20406;-82
2021/11/10 00:52:56;;;;;;;29.40;26.27;;;2.10;99.90;;;;;;5055752;28;20382;-83
2021/11/10 00:55:22;;;;;;;30.40;26.63;;;2.10;99.90;;;;;;5064658;28;20397;-80
2021/11/10 00:57:48;;;;;;;29.87;25.67;;;2.10;99.90;;;;;;5051654;28;20749;-82
2021/11/10 01:00:14;;;;;;;29.40;25.30;;;2.00;99.90;;;;;;5066779;28;20439;-81
2021/11/10 01:02:40;;;;;;;27.02;22.67;;;2.10;99.90;;;;;;5055633;28;20387;-83
2021/11/10 01:05:06;;;;;;;25.75;22.98;;;2.00;99.90;;;;;;5059703;28;20389;-82
2021/11/10 01:07:32;;;;;;;29.30;26.00;;;2.00;99.90;;;;;;5073485;28;20381;-82
2021/11/10 01:10:00;;;;;;;29.70;24.83;;;2.10;99.90;;;;;;5069643;28;20412;-81
2021/11/10 01:12:26;;;;;;;26.83;23.90;;;2.00;99.90;;;;;;5050762;28;20465;-83
2021/11/10 01:14:52;;;;;;;26.88;23.98;;;2.00;99.90;;;;;;5058077;28;20872;-82
2021/11/10 01:17:18;;;;;;;28.95;24.70;;;2.00;99.90;;;;;;5071080;28;20959;-83
2021/11/10 01:19:43;;;;;;;36.67;31.88;;;2.00;99.90;;;;;;5054672;28;20485;-82
2021/11/10 01:22:09;;;;;;;49.22;36.33;;;1.90;99.90;;;;;;5048670;28;20382;-82
2021/11/10 01:24:35;;;;;;;43.90;34.08;;;1.90;99.90;;;;;;5045678;28;20398;-83
2021/11/10 01:27:01;;;;;;;40.45;32.63;;;1.90;99.90;;;;;;5053737;28;20376;-81
2021/11/10 01:29:26;;;;;;;35.08;29.40;;;1.90;99.90;;;;;;5045106;28;20418;-82
2021/11/10 01:31:52;;;;;;;33.97;28.92;;;1.90;99.90;;;;;;5065580;28;20409;-81
2021/11/10 01:34:18;;;;;;;37.80;32.80;;;1.90;99.90;;;;;;5057608;28;20402;-80
2021/11/10 01:36:43;;;;;;;37.47;31.60;;;1.90;99.90;;;;;;5043768;28;20396;-81
2021/11/10 01:39:10;;;;;;;37.20;30.93;;;1.90;99.90;;;;;;5048872;28;20386;-81
2021/11/10 01:41:44;;;;;;;32.78;29.20;;;1.90;99.90;;;;;;5062209;28;20378;-82
2021/11/10 01:44:18;;;;;;;33.13;28.75;;;1.80;99.90;;;;;;5051337;28;20494;-83
2021/11/10 01:46:44;;;;;;;50.08;35.92;;;1.80;99.90;;;;;;5063183;28;20406;-83
2021/11/10 01:49:10;;;;;;;50.08;37.42;;;1.70;99.90;;;;;;5065507;28;20884;-81
2021/11/10 01:51:51;;;;;;;54.60;38.97;;;1.70;99.90;;;;;;5047617;28;20378;-83
2021/11/10 01:54:19;;;;;;;53.42;38.70;;;1.70;99.90;;;;;;5048972;28;20394;-81
2021/11/10 01:56:45;;;;;;;47.03;36.70;;;1.70;99.90;;;;;;5056761;28;20470;-82
2021/11/10 01:59:26;;;;;;;40.90;34.08;;;1.70;99.90;;;;;;5046446;28;20827;-83
2021/11/10 02:01:52;;;;;;;45.15;33.67;;;1.70;99.90;;;;;;5053122;28;20414;-81
2021/11/10 02:04:18;;;;;;;40.05;30.50;;;1.60;99.90;;;;;;5065318;28;20422;-81
2021/11/10 02:06:43;;;;;;;39.27;32.20;;;1.60;99.90;;;;;;5053764;28;20998;-81
2021/11/10 02:09:09;;;;;;;37.17;30.35;;;1.60;99.90;;;;;;5067544;28;20404;-81
2021/11/10 02:11:35;;;;;;;39.47;31.00;;;1.60;99.90;;;;;;5052692;28;20422;-82
2021/11/10 02:14:01;;;;;;;36.80;30.00;;;1.50;99.90;;;;;;5054045;28;20436;-81
2021/11/10 02:16:28;;;;;;;42.43;32.10;;;1.50;99.90;;;;;;5068041;28;20394;-81
2021/11/10 02:18:54;;;;;;;36.60;30.58;;;1.50;99.90;;;;;;5071929;28;20421;-83
2021/11/10 02:21:22;;;;;;;43.00;33.80;;;1.50;99.90;;;;;;5070193;28;20450;-81
2021/11/10 02:23:47;;;;;;;39.92;30.70;;;1.40;99.90;;;;;;5054203;28;20425;-82
2021/11/10 02:26:15;;;;;;;37.53;32.27;;;1.40;99.90;;;;;;5053685;28;20441;-81
2021/11/10 02:28:41;;;;;;;38.75;30.38;;;1.40;99.90;;;;;;5052776;28;20400;-82
2021/11/10 02:31:07;;;;;;;42.77;32.37;;;1.40;99.90;;;;;;5042965;28;20382;-83
2021/11/10 02:33:32;;;;;;;38.67;31.95;;;1.40;99.90;;;;;;5047293;28;20401;-80
2021/11/10 02:36:00;;;;;;;56.33;46.13;;;1.40;99.90;;;;;;5053483;28;20382;-81
2021/11/10 02:38:26;;;;;;;85.30;68.07;;;1.30;99.90;;;;;;5053212;28;20386;-83
2021/11/10 02:40:55;;;;;;;84.18;67.88;;;1.40;99.90;;;;;;5064569;28;20399;-81
2021/11/10 02:43:21;;;;;;;63.10;52.20;;;1.30;99.90;;;;;;5032499;28;20392;-83
2021/11/10 02:45:48;;;;;;;61.27;50.70;;;1.20;99.90;;;;;;5063390;28;20376;-82
2021/11/10 02:48:14;;;;;;;52.08;43.38;;;1.30;99.90;;;;;;5058057;28;20421;-82
2021/11/10 02:50:40;;;;;;;46.80;38.13;;;1.30;99.90;;;;;;5070660;28;20390;-81
2021/11/10 02:53:05;;;;;;;43.45;34.13;;;1.20;99.90;;;;;;5053440;28;20798;-80
2021/11/10 02:55:31;;;;;;;35.35;30.00;;;1.20;99.90;;;;;;5053320;28;20416;-82
2021/11/10 02:57:57;;;;;;;40.50;31.67;;;1.20;99.90;;;;;;5061917;28;20874;-81
2021/11/10 03:00:24;;;;;;;37.80;30.65;;;1.20;99.90;;;;;;5067660;28;20371;-81
2021/11/10 03:02:51;;;;;;;38.28;31.73;;;1.20;99.90;;;;;;5070757;28;20390;-82
2021/11/10 03:05:17;;;;;;;39.65;31.02;;;1.20;99.90;;;;;;5051412;28;20371;-82
2021/11/10 03:07:42;;;;;;;41.22;32.47;;;1.20;99.90;;;;;;5064585;28;20384;-82
2021/11/10 03:10:08;;;;;;;34.40;30.60;;;1.20;99.90;;;;;;5064832;28;20483;-80
2021/11/10 03:12:35;;;;;;;42.95;33.03;;;1.20;99.90;;;;;;5063755;28;20443;-82
2021/11/10 03:15:01;;;;;;;36.00;32.03;;;1.20;99.90;;;;;;5052669;28;20394;-82
2021/11/10 03:17:27;;;;;;;42.47;34.63;;;1.20;99.90;;;;;;5063547;28;20784;-83
2021/11/10 03:19:53;;;;;;;43.67;34.87;;;1.30;99.90;;;;;;5066187;28;20500;-81
2021/11/10 03:22:19;;;;;;;48.35;36.97;;;1.30;99.90;;;;;;5046709;28;20461;-81
2021/11/10 03:24:46;;;;;;;44.50;35.00;;;1.20;99.90;;;;;;5054876;28;20402;-81
2021/11/10 03:27:12;;;;;;;44.03;35.75;;;1.20;99.90;;;;;;5068263;28;20406;-82
2021/11/10 03:29:39;;;;;;;47.83;37.58;;;1.10;99.90;;;;;;5067198;28;20411;-82
2021/11/10 03:32:06;;;;;;;44.63;36.55;;;1.10;99.90;;;;;;5067129;28;20391;-82
2021/11/10 03:34:32;;;;;;;44.33;35.78;;;1.10;99.90;;;;;;5052927;28;20378;-81
2021/11/10 03:36:57;;;;;;;45.10;36.00;;;1.20;99.90;;;;;;5057326;28;20383;-80
2021/11/10 03:39:23;;;;;;;49.47;37.23;;;1.30;99.90;;;;;;5048316;28;20417;-81
2021/11/10 03:41:49;;;;;;;45.63;37.03;;;1.20;99.90;;;;;;5068442;28;20952;-81
2021/11/10 03:44:15;;;;;;;40.10;34.80;;;1.20;99.90;;;;;;5066266;28;20922;-81
2021/11/10 03:46:42;;;;;;;40.63;33.67;;;1.10;99.90;;;;;;5066418;28;20382;-82
2021/11/10 03:49:09;;;;;;;42.27;35.30;;;1.10;99.90;;;;;;5050552;28;20406;-81
2021/11/10 03:51:35;;;;;;;49.07;37.73;;;1.10;99.90;;;;;;5044843;28;20468;-81
2021/11/10 03:54:01;;;;;;;50.63;38.63;;;1.00;99.90;;;;;;5064548;28;20459;-81
2021/11/10 03:56:26;;;;;;;43.87;35.60;;;0.90;99.90;;;;;;5057145;28;20486;-81
2021/11/10 03:58:52;;;;;;;44.40;34.67;;;0.90;99.90;;;;;;5055838;28;20474;-80
2021/11/10 04:01:18;;;;;;;42.67;34.55;;;0.90;99.90;;;;;;5058716;28;20397;-82
2021/11/10 04:03:47;;;;;;;37.08;32.63;;;0.90;99.90;;;;;;5056750;28;20386;-83
2021/11/10 04:06:12;;;;;;;40.20;34.13;;;0.90;99.90;;;;;;5057845;28;20375;-82
2021/11/10 04:08:38;;;;;;;38.20;33.17;;;0.80;99.90;;;;;;5069495;28;20395;-82
2021/11/10 04:11:04;;;;;;;35.37;31.50;;;0.80;99.90;;;;;;5056157;28;20924;-83
2021/11/10 04:13:31;;;;;;;39.33;33.00;;;0.80;99.90;;;;;;5048457;28;20442;-82
2021/11/10 04:15:57;;;;;;;38.83;33.10;;;0.80;99.90;;;;;;5046719;28;20421;-82
2021/11/10 04:18:23;;;;;;;35.95;31.90;;;0.80;99.90;;;;;;5065428;28;20431;-81
2021/11/10 04:20:49;;;;;;;38.05;32.38;;;0.80;99.90;;;;;;5067669;28;20471;-81
2021/11/10 04:23:14;;;;;;;37.20;32.80;;;0.80;99.90;;;;;;5064109;28;20386;-82
2021/11/10 04:25:40;;;;;;;36.97;32.50;;;0.80;99.90;;;;;;5065919;28;20438;-81
2021/11/10 04:28:06;;;;;;;34.03;30.33;;;0.70;99.90;;;;;;5060194;28;20495;-81
2021/11/10 04:30:33;;;;;;;40.13;34.60;;;0.70;99.90;;;;;;5071348;28;20938;-80
2021/11/10 04:32:58;;;;;;;38.00;33.70;;;0.70;99.90;;;;;;5060412;28;20379;-81
2021/11/10 04:35:24;;;;;;;41.28;34.47;;;0.80;99.90;;;;;;5051630;28;20394;-82
2021/11/10 04:37:50;;;;;;;39.75;33.22;;;0.90;99.90;;;;;;5072385;28;20380;-81
2021/11/10 04:40:15;;;;;;;37.88;32.17;;;0.80;99.90;;;;;;5071851;28;20436;-82
2021/11/10 04:42:41;;;;;;;38.75;32.20;;;0.90;99.90;;;;;;5066056;28;20453;-83
2021/11/10 04:45:11;;;;;;;35.97;31.35;;;0.80;99.90;;;;;;5059211;28;20895;-82
2021/11/10 04:47:37;;;;;;;41.53;33.33;;;0.80;99.90;;;;;;5067831;28;20379;-81
2021/11/10 04:50:06;;;;;;;35.70;30.75;;;0.70;99.90;;;;;;5068251;28;20402;-82
2021/11/10 04:52:35;;;;;;;35.00;31.10;;;0.80;99.90;;;;;;5072364;28;20791;-81
2021/11/10 04:55:01;;;;;;;37.15;32.50;;;0.80;99.90;;;;;;5065073;28;20771;-82
2021/11/10 04:57:27;;;;;;;38.25;32.38;;;0.90;99.90;;;;;;5064561;28;20395;-81
2021/11/10 04:59:52;;;;;;;34.95;30.50;;;0.80;99.90;;;;;;5049145;28;20381;-82
2021/11/10 05:02:24;;;;;;;39.75;32.75;;;0.80;99.90;;;;;;5064321;28;20398;-81
2021/11/10 05:04:51;;;;;;;36.90;29.90;;;0.70;99.90;;;;;;5070142;28;20382;-79
2021/11/10 05:07:18;;;;;;;33.60;29.97;;;0.70;99.90;;;;;;5067019;28;20465;-79
2021/11/10 05:09:44;;;;;;;41.20;31.92;;;0.60;99.90;;;;;;5068467;28;20564;-82
2021/11/10 05:12:09;;;;;;;37.28;30.17;;;0.60;99.90;;;;;;5071258;28;20485;-81
2021/11/10 05:14:35;;;;;;;34.70;30.93;;;0.60;99.90;;;;;;5066302;28;20388;-81
2021/11/10 05:17:01;;;;;;;36.30;31.20;;;0.60;99.90;;;;;;5044651;28;20446;-81
2021/11/10 05:19:26;;;;;;;37.13;31.00;;;0.60;99.90;;;;;;5062564;28;20402;-81
2021/11/10 05:21:52;;;;;;;43.50;32.57;;;0.50;99.90;;;;;;5042314;28;20422;-81
2021/11/10 05:24:18;;;;;;;42.17;33.75;;;0.50;99.90;;;;;;5057381;28;20963;-82
2021/11/10 05:26:44;;;;;;;35.45;31.45;;;0.50;99.90;;;;;;5042147;28;20434;-81
2021/11/10 05:29:09;;;;;;;44.83;35.55;;;0.50;99.90;;;;;;5047167;28;20404;-81
2021/11/10 05:31:35;;;;;;;41.42;34.50;;;0.50;99.90;;;;;;5048396;28;20382;-81
2021/11/10 05:34:01;;;;;;;36.15;31.20;;;0.70;99.90;;;;;;5061729;28;20402;-80
2021/11/10 05:36:29;;;;;;;41.92;33.80;;;0.60;99.90;;;;;;5071673;28;20888;-81
2021/11/10 05:38:55;;;;;;;37.80;32.63;;;0.60;99.90;;;;;;5067278;28;20390;-81
2021/11/10 05:41:21;;;;;;;45.33;36.63;;;0.50;99.90;;;;;;5053925;28;20425;-83
2021/11/10 05:43:47;;;;;;;45.35;35.78;;;0.50;99.90;;;;;;5041730;28;20401;-82
2021/11/10 05:46:15;;;;;;;41.50;33.50;;;0.50;99.90;;;;;;5060372;28;20388;-82
2021/11/10 05:48:41;;;;;;;40.58;34.47;;;0.50;99.90;;;;;;5039847;28;20378;-81
2021/11/10 05:51:06;;;;;;;41.55;33.58;;;0.50;99.90;;;;;;5055708;28;20404;-82
2021/11/10 05:53:33;;;;;;;38.70;33.23;;;0.50;99.90;;;;;;5044591;28;20458;-81
2021/11/10 05:56:00;;;;;;;40.08;33.88;;;0.50;99.90;;;;;;5052858;28;20394;-82
2021/11/10 05:58:28;;;;;;;39.03;33.13;;;0.40;99.90;;;;;;5043185;28;20930;-81
2021/11/10 06:00:59;;;;;;;36.17;31.40;;;0.40;99.90;;;;;;5072371;28;20385;-81
2021/11/10 06:03:25;;;;;;;38.55;34.00;;;0.40;99.90;;;;;;5052292;28;20764;-82
2021/11/10 06:05:51;;;;;;;36.58;31.90;;;0.40;99.90;;;;;;5053157;28;20376;-82
2021/11/10 06:08:17;;;;;;;37.03;31.97;;;0.40;99.90;;;;;;5046532;28;20941;-82
2021/11/10 06:10:42;;;;;;;34.97;30.80;;;0.40;99.90;;;;;;5047383;28;20393;-82
2021/11/10 06:13:08;;;;;;;34.30;30.27;;;0.30;99.90;;;;;;5059082;28;20403;-81
2021/11/10 06:15:34;;;;;;;38.75;32.88;;;0.30;99.90;;;;;;5054271;28;20465;-81
2021/11/10 06:17:59;;;;;;;37.07;32.03;;;0.30;99.90;;;;;;5072100;28;20393;-81
2021/11/10 06:20:25;;;;;;;41.60;36.05;;;0.30;99.90;;;;;;5045637;28;20400;-81
2021/11/10 06:22:51;;;;;;;43.55;35.85;;;0.30;99.90;;;;;;5070730;28;20375;-82
2021/11/10 06:25:17;;;;;;;47.33;36.42;;;0.30;99.90;;;;;;5047362;28;20386;-81
2021/11/10 06:27:42;;;;;;;41.22;33.35;;;0.30;99.90;;;;;;5072027;28;20915;-82
2021/11/10 06:30:09;;;;;;;41.35;33.63;;;0.30;99.90;;;;;;5038148;28;20533;-82
2021/11/10 06:32:35;;;;;;;41.90;34.40;;;0.40;99.90;;;;;;5052043;28;20430;-82
2021/11/10 06:35:01;;;;;;;36.50;32.53;;;0.50;99.90;;;;;;5052565;28;20897;-82
2021/11/10 06:37:26;;;;;;;36.90;32.28;;;0.50;99.90;;;;;;5052460;28;20422;-82
2021/11/10 06:39:52;;;;;;;33.70;30.10;;;0.50;99.90;;;;;;5051861;28;20503;-82
2021/11/10 06:42:18;;;;;;;36.35;31.92;;;0.50;99.90;;;;;;5034642;28;20483;-83
2021/11/10 06:44:43;;;;;;;36.17;31.23;;;0.50;99.90;;;;;;5051862;28;20384;-82
2021/11/10 06:47:09;;;;;;;34.30;30.60;;;0.60;99.90;;;;;;5051605;28;20895;-82
2021/11/10 06:49:35;;;;;;;42.63;35.10;;;0.60;99.90;;;;;;5053392;28;20394;-81
2021/11/10 06:52:00;;;;;;;38.10;33.33;;;0.60;99.90;;;;;;5053231;28;20460;-83
2021/11/10 06:54:27;;;;;;;39.67;33.60;;;0.60;99.90;;;;;;5052083;28;20423;-82
2021/11/10 06:56:53;;;;;;;41.17;34.00;;;0.60;99.90;;;;;;5051794;28;20469;-83
2021/11/10 06:59:19;;;;;;;40.50;34.20;;;0.70;99.90;;;;;;5064571;28;20527;-83
2021/11/10 07:01:45;;;;;;;36.42;31.92;;;0.70;99.90;;;;;;5053341;28;20390;-83
2021/11/10 07:04:11;;;;;;;38.55;31.73;;;0.70;99.90;;;;;;5070728;28;20382;-82
2021/11/10 07:06:37;;;;;;;35.97;31.88;;;0.70;99.90;;;;;;5051606;28;20752;-81
2021/11/10 07:09:06;;;;;;;37.58;33.33;;;0.80;99.90;;;;;;5052704;28;20411;-81
2021/11/10 07:11:34;;;;;;;38.42;32.92;;;0.90;99.90;;;;;;5060546;28;20386;-83
2021/11/10 07:14:01;;;;;;;36.58;31.30;;;1.00;99.90;;;;;;5066712;28;20391;-81
2021/11/10 07:16:27;;;;;;;37.05;32.50;;;1.10;99.90;;;;;;5050569;28;20412;-82
2021/11/10 07:18:52;;;;;;;36.40;32.23;;;1.20;99.90;;;;;;5057806;28;20507;-81
2021/11/10 07:21:18;;;;;;;35.97;32.00;;;1.30;99.90;;;;;;5055492;28;21196;-80
2021/11/10 07:23:44;;;;;;;37.53;32.10;;;1.40;99.90;;;;;;5055519;28;20387;-82
2021/11/10 07:26:09;;;;;;;32.25;28.85;;;1.50;99.90;;;;;;5066975;28;21248;-82
2021/11/10 07:28:35;;;;;;;33.57;29.90;;;1.70;99.90;;;;;;5067485;28;20371;-82
2021/11/10 07:31:00;;;;;;;38.87;34.27;;;1.80;99.90;;;;;;5048253;28;20485;-81
2021/11/10 07:33:26;;;;;;;37.87;33.97;;;1.80;99.90;;;;;;5047127;28;20393;-81
2021/11/10 07:35:52;;;;;;;44.25;39.50;;;1.90;99.90;;;;;;5047823;28;20378;-82
2021/11/10 07:38:23;;;;;;;40.93;36.63;;;2.00;99.90;;;;;;5044601;28;20588;-80
2021/11/10 07:40:49;;;;;;;38.80;34.60;;;2.00;99.90;;;;;;5059986;28;20393;-83
2021/11/10 07:43:15;;;;;;;40.28;36.03;;;2.10;99.90;;;;;;5060582;28;20831;-82
2021/11/10 07:45:48;;;;;;;49.03;43.93;;;2.20;99.90;;;;;;5044311;28;20909;-84
2021/11/10 07:48:15;;;;;;;46.30;41.53;;;2.20;99.90;;;;;;5048767;28;20823;-83
2021/11/10 07:50:41;;;;;;;46.05;40.28;;;2.30;99.90;;;;;;5066749;28;20428;-83
2021/11/10 07:53:07;;;;;;;41.50;37.25;;;2.30;99.90;;;;;;5062572;28;20386;-79
2021/11/10 07:55:33;;;;;;;37.38;33.55;;;2.40;99.90;;;;;;5053114;28;20397;-84
2021/11/10 07:57:59;;;;;;;34.72;31.13;;;2.40;99.90;;;;;;5060914;28;20866;-83
2021/11/10 08:00:25;;;;;;;37.42;33.35;;;2.40;99.90;;;;;;5064533;28;20380;-80
2021/11/10 08:02:51;;;;;;;32.70;29.25;;;2.40;99.90;;;;;;5043779;28;20399;-81
2021/11/10 08:05:17;;;;;;;34.47;30.77;;;2.50;99.90;;;;;;5073451;28;20752;-81
2021/11/10 08:07:48;;;;;;;35.67;31.77;;;2.50;99.90;;;;;;5071107;28;20374;-81
2021/11/10 08:10:15;;;;;;;32.58;29.23;;;2.70;99.90;;;;;;5041432;28;20409;-81
2021/11/10 08:12:41;;;;;;;33.05;29.55;;;2.80;99.90;;;;;;5035879;28;20376;-81
2021/11/10 08:15:10;;;;;;;33.40;29.85;;;2.90;99.90;;;;;;5040950;28;20384;-82
2021/11/10 08:17:38;;;;;;;38.63;33.72;;;3.10;99.90;;;;;;5055799;28;20387;-82
2021/11/10 08:20:10;;;;;;;39.75;35.45;;;3.20;99.90;;;;;;5029886;28;20465;-81
2021/11/10 08:22:36;;;;;;;41.55;36.72;;;3.40;99.90;;;;;;5050843;28;20375;-83
2021/11/10 08:25:04;;;;;;;42.58;38.03;;;3.50;99.90;;;;;;5050491;28;20380;-82
2021/11/10 08:27:33;;;;;;;45.73;38.83;;;3.80;99.90;;;;;;5033321;28;20754;-82
2021/11/10 08:29:59;;;;;;;45.03;38.67;;;4.00;99.90;;;;;;5047845;28;20450;-82
2021/11/10 08:32:25;;;;;;;44.60;39.00;;;4.20;99.90;;;;;;5048467;28;20428;-81
2021/11/10 08:34:50;;;;;;;44.83;39.33;;;4.40;99.90;;;;;;5028073;28;20896;-83
2021/11/10 08:37:16;;;;;;;45.20;40.27;;;4.50;99.90;;;;;;5045749;28;20392;-82
2021/11/10 08:39:41;;;;;;;46.20;41.20;;;4.70;99.90;;;;;;5028412;28;20467;-81
2021/11/10 08:42:09;;;;;;;47.42;40.78;;;4.90;99.90;;;;;;5047301;28;20387;-80
2021/11/10 08:44:40;;;;;;;48.63;43.33;;;5.10;99.90;;;;;;5044968;28;20415;-81
2021/11/10 08:47:07;;;;;;;46.33;40.78;;;5.20;99.90;;;;;;5029260;28;20396;-83
2021/11/10 08:49:33;;;;;;;46.85;41.20;;;5.40;99.90;;;;;;5028477;28;20414;-82
2021/11/10 08:51:59;;;;;;;42.97;38.47;;;5.60;99.90;;;;;;5045763;28;20441;-83
2021/11/10 08:54:25;;;;;;;44.22;39.45;;;5.70;99.90;;;;;;5048519;28;20391;-81
2021/11/10 08:56:56;;;;;;;43.38;38.80;;;5.90;99.90;;;;;;5047494;28;20893;-83
2021/11/10 08:59:22;;;;;;;41.60;37.10;;;6.10;99.90;;;;;;5030780;28;20404;-83
2021/11/10 09:01:50;;;;;;;43.67;38.25;;;6.10;99.90;;;;;;5045169;28;20475;-82
2021/11/10 09:04:17;;;;;;;41.00;36.72;;;6.20;99.90;;;;;;5029518;28;20388;-81
2021/11/10 09:06:45;;;;;;;41.97;36.67;;;6.20;99.90;;;;;;5045073;28;20474;-83
2021/11/10 09:09:10;;;;;;;39.78;35.50;;;6.20;99.90;;;;;;5029259;28;20427;-81
2021/11/10 09:11:36;;;;;;;40.40;36.05;;;6.10;99.90;;;;;;5046546;28;20486;-84
2021/11/10 09:14:02;;;;;;;41.17;36.80;;;6.00;99.90;;;;;;5045113;28;20445;-83
2021/11/10 09:16:27;;;;;;;38.78;34.78;;;6.10;99.90;;;;;;5047402;28;20765;-83
2021/11/10 09:18:53;;;;;;;38.00;34.10;;;6.30;99.90;;;;;;5047086;28;20372;-83
2021/11/10 09:21:18;;;;;;;39.08;34.47;;;6.30;99.90;;;;;;5028819;28;20377;-82
2021/11/10 09:23:45;;;;;;;39.50;34.93;;;6.30;99.90;;;;;;5046904;28;20919;-83
2021/11/10 09:26:10;;;;;;;38.72;34.55;;;6.40;99.90;;;;;;5047025;28;20458;-84
2021/11/10 09:28:37;;;;;;;37.72;33.67;;;6.40;99.90;;;;;;5046756;28;20888;-82
2021/11/10 09:31:03;;;;;;;33.85;30.45;;;6.50;99.90;;;;;;5046952;28;20415;-83
2021/11/10 09:33:31;;;;;;;34.40;30.52;;;6.50;99.90;;;;;;5044031;28;20406;-82
2021/11/10 09:35:56;;;;;;;36.15;32.25;;;6.60;99.90;;;;;;5028533;28;20384;-82
2021/11/10 09:38:23;;;;;;;33.20;29.70;;;6.60;99.90;;;;;;5046086;28;20893;-83
2021/11/10 09:40:50;;;;;;;32.22;28.58;;;6.60;99.90;;;;;;5046196;28;20433;-83
2021/11/10 09:43:16;;;;;;;33.85;30.20;;;6.60;99.90;;;;;;5028397;28;20388;-83
2021/11/10 09:45:45;;;;;;;32.90;29.30;;;6.60;99.90;;;;;;5045696;28;20893;-82
2021/11/10 09:48:13;;;;;;;31.85;28.50;;;6.70;99.90;;;;;;5044066;28;20396;-82
2021/11/10 09:50:42;;;;;;;31.20;28.08;;;6.70;99.90;;;;;;5045422;28;20797;-83
2021/11/10 09:53:08;;;;;;;31.73;28.08;;;6.80;99.90;;;;;;5044245;28;20388;-83
2021/11/10 09:55:34;;;;;;;30.10;26.83;;;6.90;99.90;;;;;;5045828;28;20388;-81
2021/11/10 09:58:01;;;;;;;29.35;26.35;;;6.90;99.90;;;;;;5045453;28;21157;-84
2021/11/10 10:00:34;;;;;;;28.50;25.52;;;6.90;99.90;;;;;;5039594;28;20802;-83
2021/11/10 10:03:01;;;;;;;27.42;24.63;;;7.00;99.90;;;;;;5021239;28;20413;-84
2021/11/10 10:05:27;;;;;;;27.08;24.38;;;7.10;99.90;;;;;;5045181;28;20900;-85
2021/11/10 10:07:56;;;;;;;27.33;24.37;;;7.20;99.90;;;;;;5028020;28;20396;-82
2021/11/10 10:10:23;;;;;;;29.63;25.17;;;7.20;99.90;;;;;;5026970;28;20404;-83
2021/11/10 10:12:55;;;;;;;28.17;25.17;;;7.20;99.90;;;;;;5024791;28;20430;-84
2021/11/10 10:15:22;;;;;;;26.23;22.92;;;7.20;99.90;;;;;;5042203;28;20477;-85
2021/11/10 10:17:56;;;;;;;25.93;22.83;;;7.40;99.90;;;;;;5036725;28;20388;-85
2021/11/10 10:20:30;;;;;;;27.00;23.65;;;7.40;99.90;;;;;;5035434;28;20388;-84
2021/11/10 10:23:00;;;;;;;26.38;23.45;;;7.30;99.90;;;;;;5031572;28;20420;-83
2021/11/10 10:25:47;;;;;;;24.95;22.45;;;7.50;99.90;;;;;;5041531;28;20725;-84
2021/11/10 10:28:19;;;;;;;24.08;21.60;;;7.80;99.90;;;;;;5034836;28;20387;-85
2021/11/10 10:30:48;;;;;;;23.25;20.85;;;8.20;99.90;;;;;;5034738;28;20494;-84
2021/11/10 10:33:19;;;;;;;22.88;20.42;;;8.40;99.90;;;;;;5037526;28;20390;-83
2021/11/10 10:35:51;;;;;;;20.00;17.75;;;8.60;99.90;;;;;;5031247;28;20447;-85
2021/11/10 10:38:20;;;;;;;20.47;18.37;;;8.70;99.90;;;;;;5038470;28;20732;-82
2021/11/10 10:40:48;;;;;;;21.77;18.25;;;8.80;99.90;;;;;;5034522;28;20753;-82
2021/11/10 10:43:14;;;;;;;19.67;17.58;;;9.00;99.90;;;;;;5040850;28;20467;-84
2021/11/10 10:45:47;;;;;;;18.98;17.02;;;9.00;99.90;;;;;;5014658;28;20496;-84
2021/11/10 10:48:23;;;;;;;18.30;16.45;;;9.00;99.90;;;;;;5028892;28;20400;-83
2021/11/10 10:51:00;;;;;;;18.20;16.17;;;9.10;99.90;;;;;;5032431;28;20404;-83
2021/11/10 10:53:37;;;;;;;18.17;15.95;;;9.20;99.90;;;;;;5044880;28;20383;-81
2021/11/10 10:56:20;;;;;;;17.40;15.68;;;9.20;99.90;;;;;;5025264;28;20847;-82
2021/11/10 10:58:49;;;;;;;17.30;15.43;;;9.50;99.90;;;;;;5029900;28;20381;-83
2021/11/10 11:01:26;;;;;;;17.63;15.32;;;9.60;99.90;;;;;;5034007;28;20400;-82
2021/11/10 11:04:06;;;;;;;16.40;14.68;;;9.60;99.90;;;;;;5013245;28;20556;-83
2021/11/10 11:06:45;;;;;;;16.67;14.93;;;9.70;99.90;;;;;;5026915;28;20393;-82
2021/11/10 11:09:19;;;;;;;16.95;14.43;;;9.90;99.90;;;;;;5019367;28;20394;-84
2021/11/10 11:17:40;;;;;;;15.93;14.02;;;10.30;99.90;;;;;;5040550;28;20881;-82
2021/11/10 11:20:23;;;;;;;14.02;12.57;;;10.30;99.90;;;;;;5016806;28;20777;-84
2021/11/10 11:22:54;;;;;;;17.67;13.50;;;10.30;99.90;;;;;;5030052;28;21152;-81
2021/11/10 11:25:29;;;;;;;16.27;14.18;;;10.30;99.90;;;;;;5021907;28;20393;-82
2021/11/10 11:28:16;;;;;;;14.02;12.25;;;10.10;99.90;;;;;;5042413;28;20376;-82
2021/11/10 11:30:55;;;;;;;14.27;12.33;;;10.10;99.90;;;;;;5038698;28;20762;-83
2021/11/10 11:33:21;;;;;;;12.90;11.52;;;10.00;99.90;;;;;;5037005;28;20369;-81
2021/11/10 11:35:52;;;;;;;12.35;11.05;;;10.10;99.90;;;;;;5016945;28;20380;-84
2021/11/10 11:38:22;;;;;;;12.40;10.00;;;10.30;99.90;;;;;;5023712;28;20387;-84
2021/11/10 11:40:54;;;;;;;12.80;10.07;;;10.30;99.90;;;;;;5041917;28;20380;-83
2021/11/10 11:43:26;;;;;;;12.05;10.02;;;10.40;99.90;;;;;;5043926;28;21247;-82
2021/11/10 11:45:54;;;;;;;11.23;10.05;;;10.60;99.90;;;;;;5044313;28;20449;-83
2021/11/10 11:48:24;;;;;;;10.90;9.73;;;10.70;99.90;;;;;;5043951;28;20384;-83
2021/11/10 11:50:52;;;;;;;12.27;9.95;;;10.70;99.90;;;;;;5025379;28;20411;-83
2021/11/10 11:53:19;;;;;;;12.63;10.18;;;10.70;99.90;;;;;;5044073;28;20412;-84
2021/11/10 11:56:03;;;;;;;13.32;10.25;;;10.70;99.90;;;;;;5042332;28;20384;-82
2021/11/10 11:58:37;;;;;;;12.07;10.20;;;10.70;99.90;;;;;;5025304;28;20415;-82
2021/11/10 12:01:12;;;;;;;11.88;8.75;;;10.70;99.90;;;;;;5044062;28;20396;-84
2021/11/10 12:03:42;;;;;;;10.98;9.45;;;10.70;99.90;;;;;;5034731;28;20396;-83
2021/11/10 12:06:08;;;;;;;13.63;11.37;;;10.70;99.90;;;;;;5043898;28;20441;-84
2021/11/10 12:08:45;;;;;;;11.95;9.30;;;10.60;99.90;;;;;;5043554;28;20399;-82
2021/11/10 12:11:29;;;;;;;13.85;8.82;;;10.70;99.90;;;;;;5034532;28;20446;-83
2021/11/10 12:14:06;;;;;;;12.32;8.65;;;10.70;99.90;;;;;;5044284;28;20396;-82
2021/11/10 12:17:05;;;;;;;10.82;8.45;;;10.70;99.90;;;;;;5044144;28;20387;-83
2021/11/10 12:19:38;;;;;;;11.82;9.20;;;10.70;99.90;;;;;;5044236;28;20774;-83
2021/11/10 12:22:15;;;;;;;12.47;8.63;;;10.70;99.90;;;;;;5044899;28;20969;-83
2021/11/10 12:24:53;;;;;;;10.65;8.77;;;10.60;99.90;;;;;;5043426;28;20453;-84
2021/11/10 12:27:20;;;;;;;12.68;9.88;;;10.60;99.90;;;;;;5045920;28;20432;-83
2021/11/10 12:29:49;;;;;;;12.33;10.00;;;10.50;99.90;;;;;;5030254;28;20838;-84
2021/11/10 12:32:22;;;;;;;12.93;9.38;;;10.40;99.90;;;;;;5030670;28;20391;-83
2021/11/10 12:34:50;;;;;;;14.20;10.05;;;10.40;99.90;;;;;;5030396;28;20723;-82
2021/11/10 12:37:28;;;;;;;11.40;9.10;;;10.30;99.90;;;;;;5042451;28;20887;-82
2021/11/10 12:40:22;;;;;;;12.20;7.93;;;10.40;99.90;;;;;;5031544;28;20412;-83
2021/11/10 12:42:59;;;;;;;11.43;8.45;;;10.50;99.90;;;;;;5042900;28;20387;-85
2021/11/10 12:45:53;;;;;;;11.00;9.15;;;10.60;99.90;;;;;;5050247;28;20390;-82